Time;durP1;ratioP1;P1;durP2;ratioP2;P2;SDS_P1;SDS_P2;PMS_P1;PMS_P2;Temp;Humidity;BMP_temperature;BMP_pressure;BME280_temperature;BME280_humidity;BME280_pressure;Samples;Min_cycle;Max_cycle;Signal;HPM_P1;HPM_P2
2022/08/11 00:01:55;;;;;;;2.9;5.7;;;;;;;14;100;99290;;;;
2022/08/11 00:12:55;;;;;;;2.9;5.7;;;;;;;13.7;100;99280;;;;
2022/08/11 00:23:55;;;;;;;2.9;5.7;;;;;;;13.5;100;99280;;;;
2022/08/11 00:34:55;;;;;;;3.7;7.6;;;;;;;13.2;100;99280;;;;
2022/08/11 00:45:55;;;;;;;3.7;7.6;;;;;;;12.9;100;99280;;;;
2022/08/11 00:55:55;;;;;;;3.7;7.6;;;;;;;12.8;100;99270;;;;
2022/08/11 01:05:55;;;;;;;4.5;8.8;;;;;;;12.7;100;99260;;;;
2022/08/11 01:15:55;;;;;;;4.5;8.8;;;;;;;12.6;100;99270;;;;
2022/08/11 01:25:55;;;;;;;4.5;8.8;;;;;;;12.5;100;99280;;;;
2022/08/11 01:36:55;;;;;;;4.5;7.8;;;;;;;12.3;100;99270;;;;
2022/08/11 01:46:55;;;;;;;4.5;7.8;;;;;;;12.1;100;99260;;;;
2022/08/11 01:56:56;;;;;;;4.5;7.8;;;;;;;12;100;99270;;;;
2022/08/11 02:07:55;;;;;;;4.2;6.6;;;;;;;11.8;100;99280;;;;
2022/08/11 02:29:55;;;;;;;2.9;5.6;;;;;;;11.6;100;99260;;;;
2022/08/11 02:39:55;;;;;;;2.9;5.6;;;;;;;11.5;100;99260;;;;
2022/08/11 02:50:55;;;;;;;2.9;5.6;;;;;;;11.5;100;99260;;;;
2022/08/11 03:00:56;;;;;;;3.3;7.6;;;;;;;11.4;100;99260;;;;
2022/08/11 03:21:55;;;;;;;3.3;7.6;;;;;;;11.5;100;99270;;;;
2022/08/11 03:34:01;;;;;;;3.1;6.5;;;;;;;11.6;100;99270;;;;
2022/08/11 03:42:55;;;;;;;3.1;6.5;;;;;;;11.8;100;99270;;;;
2022/08/11 03:52:55;;;;;;;3.1;6.5;;;;;;;12.1;100;99270;;;;
2022/08/11 04:02:55;;;;;;;3.2;5.4;;;;;;;12.4;100;99260;;;;
2022/08/11 04:15:58;;;;;;;3.2;5.4;;;;;;;12.7;100;99260;;;;
2022/08/11 04:24:55;;;;;;;3.2;5.4;;;;;;;13.1;100;99260;;;;
2022/08/11 04:34:55;;;;;;;4.2;7.6;;;;;;;13.4;100;99270;;;;
2022/08/11 04:45:55;;;;;;;4.2;7.6;;;;;;;13.8;100;99280;;;;
2022/08/11 05:07:55;;;;;;;5.1;9.9;;;;;;;14.9;100;99290;;;;
2022/08/11 06:01:55;;;;;;;4.6;8;;;;;;;17.4;100;99330;;;;
2022/08/11 06:11:55;;;;;;;4.6;8;;;;;;;17.6;100;99320;;;;
2022/08/11 06:22:55;;;;;;;4.6;8;;;;;;;18.1;100;99330;;;;
2022/08/11 06:32:56;;;;;;;4.9;11.1;;;;;;;18.3;100;99320;;;;
2022/08/11 06:42:55;;;;;;;4.9;11.1;;;;;;;18.7;100;99320;;;;
2022/08/11 06:52:55;;;;;;;4.9;11.1;;;;;;;19.1;100;99320;;;;
2022/08/11 07:03:56;;;;;;;4;8;;;;;;;19;100;99320;;;;
2022/08/11 07:15:42;;;;;;;4;8;;;;;;;19.4;100;99320;;;;
2022/08/11 07:35:55;;;;;;;3.1;6.3;;;;;;;20.1;100;99310;;;;
2022/08/11 07:55:55;;;;;;;3.1;6.3;;;;;;;20.8;100;99310;;;;
2022/08/11 08:17:59;;;;;;;2.6;6.9;;;;;;;21.3;100;99320;;;;
2022/08/11 08:27:55;;;;;;;2.6;6.9;;;;;;;21.9;100;99310;;;;
2022/08/11 08:38:55;;;;;;;2.2;5.2;;;;;;;22.4;100;99300;;;;
2022/08/11 08:49:55;;;;;;;2.2;5.2;;;;;;;22.6;100;99290;;;;
2022/08/11 08:59:55;;;;;;;2.3;5.6;;;;;;;23;98.9;99280;;;;
2022/08/11 09:09:55;;;;;;;2.3;5.6;;;;;;;23.5;96.5;99280;;;;
2022/08/11 09:19:59;;;;;;;2.3;5.6;;;;;;;23.8;92.7;99270;;;;
2022/08/11 09:30:55;;;;;;;1.8;4.9;;;;;;;25;86.9;99260;;;;
2022/08/11 09:41:55;;;;;;;1.8;4.9;;;;;;;25.1;83.8;99250;;;;
2022/08/11 09:52:55;;;;;;;1.8;4.9;;;;;;;24.6;82.5;99250;;;;
2022/08/11 10:03:57;;;;;;;1.7;5.2;;;;;;;24.7;84.9;99230;;;;
2022/08/11 10:34:55;;;;;;;1.7;4.2;;;;;;;24.4;83.4;99220;;;;
2022/08/11 10:44:55;;;;;;;1.7;4.2;;;;;;;24.1;82.9;99200;;;;
2022/08/11 11:04:55;;;;;;;1.3;3.6;;;;;;;24.7;79.6;99160;;;;
2022/08/11 11:26:55;;;;;;;1.3;3.6;;;;;;;22.5;91.2;99180;;;;
2022/08/11 11:36:55;;;;;;;1.5;5;;;;;;;19.8;100;99190;;;;
2022/08/11 11:46:55;;;;;;;1.5;5;;;;;;;19.9;100;99160;;;;
2022/08/11 11:56:55;;;;;;;1.5;5;;;;;;;20.1;100;99130;;;;
2022/08/11 12:08:13;;;;;;;1.5;6.9;;;;;;;22.2;100;99120;;;;
2022/08/11 12:18:55;;;;;;;1.5;6.9;;;;;;;23.4;97.3;99120;;;;
2022/08/11 12:29:55;;;;;;;1.1;4.1;;;;;;;24.2;87.6;99120;;;;
2022/08/11 12:51:57;;;;;;;1.1;4.1;;;;;;;20.9;100;99120;;;;
2022/08/11 13:12:55;;;;;;;1.5;4.1;;;;;;;19.1;100;99150;;;;
2022/08/11 13:23:55;;;;;;;1.5;4.1;;;;;;;17.7;100;99170;;;;
2022/08/11 13:33:55;;;;;;;1.6;5;;;;;;;17.1;100;99150;;;;
2022/08/11 13:44:55;;;;;;;1.6;5;;;;;;;17.6;100;99160;;;;
2022/08/11 13:54:55;;;;;;;1.6;5;;;;;;;17.7;100;99150;;;;
2022/08/11 14:05:55;;;;;;;2.1;6.2;;;;;;;18.6;100;99160;;;;
2022/08/11 14:15:56;;;;;;;2.1;6.2;;;;;;;18.6;100;99160;;;;
2022/08/11 14:26:55;;;;;;;2.1;6.2;;;;;;;19;100;99170;;;;
2022/08/11 14:36:55;;;;;;;2.2;5.8;;;;;;;20.1;100;99170;;;;
2022/08/11 14:47:55;;;;;;;2.2;5.8;;;;;;;20.7;100;99160;;;;
2022/08/11 14:57:55;;;;;;;2.2;5.8;;;;;;;21.4;100;99150;;;;
2022/08/11 15:08:55;;;;;;;2.1;5;;;;;;;22.6;100;99130;;;;
2022/08/11 15:18:55;;;;;;;2.1;5;;;;;;;22.1;100;99120;;;;
2022/08/11 15:51:55;;;;;;;2.5;5.5;;;;;;;26;99.9;99130;;;;
2022/08/11 16:23:55;;;;;;;4.6;11.2;;;;;;;25.2;98;99120;;;;
2022/08/11 16:33:55;;;;;;;2.4;6.1;;;;;;;24.1;100;99110;;;;
2022/08/11 16:54:55;;;;;;;2.4;6.1;;;;;;;23.3;100;99090;;;;
2022/08/11 17:16:11;;;;;;;2.8;6.8;;;;;;;20.3;100;99090;;;;
2022/08/11 17:25:55;;;;;;;2.8;6.8;;;;;;;20.8;100;99080;;;;
2022/08/11 17:35:55;;;;;;;2;4.7;;;;;;;20.3;100;99090;;;;
